COYOTE (LAKE MENDOCINO) (COY)

Elevation: 720' · RUSSIAN R basin · Operator: US Army Corps of Engineers


Station comments:

01/27/2014Hourly data does not seem correct. Flagged data 1/14/2014 9:00 to 1/16/2014 7:00.


Provisional data, subject to change.
Query executed Thursday at 14:09:19   clock

Select a sensor type for a plot of data.
Note: Reservoir Flows are daily averages.

Earlier

Date RES ELE    STORAGE    RES CHG    TOC STO    OUTFLOW    INFLOW    PPT INC    TEMP MN    TEMP MX    EVP PAN   
 FEET   AF   AF   AF   CFS   CFS   INCHES   DEG F   DEG F   INCHES  
03/18/2014 717.73 38336 14 78800 30 44 0.00 36 76 0.17
03/19/2014 717.74 38349 13 79400 30 -- 0.00 37 77 0.17
03/20/2014 717.76 38376 27 80000 30 -- 0.00 42 76 0.17
03/21/2014 717.77 38389 13 80600 31 44 0.00 40 76 0.17
03/22/2014 717.78 38402 13 81200 31 44 0.00 38 75 0.16
03/23/2014 717.79 38416 14 81700 32 46 0.00 37 80 0.17
03/24/2014 717.80 38429 13 82300 32 45 0.01 38 81 0.18
03/25/2014 717.86 38509 80 82900 31 74 0.37 40 60 0.07
03/26/2014 717.94 38616 107 83500 31 88 0.44 46 57 0.10
03/27/2014 718.01 38710 94 84100 32 82 0.05 46 59 0.07
03/28/2014 718.09 38818 108 84600 31 88 0.29 51 59 0.06
03/29/2014 719.98 41402 2584 85200 33 1338 0.90 45 58 0.06
03/30/2014 720.35 41919 517 85800 33 298 0.03 40 58 0.11
03/31/2014 721.34 43317 1398 86400 31 737 0.98 39 50 0.03
04/01/2014 722.25 44619 1302 86400 28 685 0.43 42 50 0.03
04/02/2014 722.98 45675 1056 86400 28 566 0.05 37 63 0.14
04/03/2014 723.31 46155 480 86400 28 276 0.00 39 62 0.13
04/04/2014 723.55 46506 351 86400 27 210 0.06 46 62 0.14
04/05/2014 723.74 46784 278 86400 28 175 0.01 40 68 0.16
04/06/2014 723.89 47005 221 86400 28 147 0.07 44 79 0.19
04/07/2014 724.01 47181 176 86400 27 124 0.02 46 84 0.21
04/08/2014 724.11 47328 147 86400 31 114 0.00 47 85 0.20
04/09/2014 724.20 47461 133 86400 32 108 0.00 45 82 0.21
04/10/2014 724.29 47594 133 86400 31 107 0.01 45 88 0.22
04/11/2014 724.35 47683 89 86400 31 85 0.00 45 84 0.22
04/12/2014 724.41 47771 88 86400 31 83 0.00 49 74 0.18
04/13/2014 724.48 47875 104 86400 31 92 0.00 49 84 0.20
04/14/2014 724.52 47934 59 86400 31 70 0.00 45 85 0.22
04/15/2014 724.60 48053 119 86400 32 101 0.00 46 78 0.21
04/16/2014 724.69 48186 133 86400 31 107 0.00 52 77 0.22
04/17/2014 -- -- -- -- -- -- -- -- -- --

Later | Latest

Warning! This data is preliminary and subject to revision.

Download Data Now Download Data Now | Show COY Map | Plot COY Data | 1 Month COY Data | Real-Time COY Data | COY Info